Time;durP1;ratioP1;P1;durP2;ratioP2;P2;SDS_P1;SDS_P2;PMS_P1;PMS_P2;Temp;Humidity;BMP_temperature;BMP_pressure;BME280_temperature;BME280_humidity;BME280_pressure;Samples;Min_cycle;Max_cycle;Signal;HPM_P1;HPM_P2
2022/03/12 00:00:10;;;;;;;13.43;7.60;;;;;;;2.26;100.00;95382.50;5026771;28;20022;-64
2022/03/12 00:02:38;;;;;;;16.33;8.40;;;;;;;2.25;100.00;95372.94;5036147;28;20018;-66
2022/03/12 00:05:07;;;;;;;14.35;8.05;;;;;;;2.19;100.00;95368.50;5036625;28;20670;-65
2022/03/12 00:07:42;;;;;;;15.23;8.65;;;;;;;2.16;100.00;95368.91;5018996;28;20025;-64
2022/03/12 00:10:13;;;;;;;16.38;8.35;;;;;;;2.12;100.00;95374.81;5019397;28;20032;-66
2022/03/12 00:12:40;;;;;;;15.10;7.88;;;;;;;2.09;100.00;95362.81;5035177;28;20018;-66
2022/03/12 00:15:14;;;;;;;15.20;8.25;;;;;;;2.10;100.00;95361.81;5035370;28;20006;-66
2022/03/12 00:17:45;;;;;;;15.80;8.27;;;;;;;2.07;100.00;95364.88;5035185;28;20021;-66
2022/03/12 00:20:16;;;;;;;15.85;8.63;;;;;;;1.98;100.00;95352.88;5035742;28;20048;-64
2022/03/12 00:22:59;;;;;;;18.88;7.88;;;;;;;1.90;100.00;95347.78;5035231;28;20472;-65
2022/03/12 00:25:26;;;;;;;14.82;7.38;;;;;;;1.85;100.00;95339.69;5035008;28;20041;-66
2022/03/12 00:27:54;;;;;;;15.55;7.75;;;;;;;1.83;100.00;95325.84;5035559;28;20021;-65
2022/03/12 00:30:24;;;;;;;14.27;7.78;;;;;;;1.81;100.00;95323.41;5035672;28;20022;-62
2022/03/12 00:32:53;;;;;;;17.45;8.88;;;;;;;1.81;100.00;95327.88;5035022;28;20021;-65
2022/03/12 00:35:20;;;;;;;14.82;7.22;;;;;;;1.81;100.00;95331.34;5035726;28;20021;-64
2022/03/12 00:37:55;;;;;;;17.58;8.70;;;;;;;1.88;100.00;95326.88;5018626;28;20060;-65
2022/03/12 00:40:23;;;;;;;17.40;8.63;;;;;;;1.90;100.00;95329.31;5035032;28;20022;-64
2022/03/12 00:42:49;;;;;;;15.70;8.20;;;;;;;1.91;100.00;95326.47;5034139;28;20032;-65
2022/03/12 00:45:19;;;;;;;14.75;8.27;;;;;;;1.92;100.00;95327.25;5035262;28;20026;-64
2022/03/12 00:47:49;;;;;;;18.67;9.02;;;;;;;1.91;100.00;95330.94;5035459;28;20006;-65
2022/03/12 00:50:25;;;;;;;14.80;8.43;;;;;;;1.87;100.00;95327.91;5034972;28;20053;-65
2022/03/12 00:52:50;;;;;;;15.88;8.48;;;;;;;1.89;100.00;95314.47;5025553;28;20019;-65
2022/03/12 00:55:16;;;;;;;16.67;8.55;;;;;;;1.90;100.00;95321.38;5031733;28;20020;-65
2022/03/12 00:57:50;;;;;;;16.08;8.57;;;;;;;1.92;100.00;95320.16;5017417;28;20026;-65
2022/03/12 01:00:19;;;;;;;17.15;8.35;;;;;;;1.97;100.00;95311.63;5025955;28;20432;-65
2022/03/12 01:03:03;;;;;;;16.35;8.98;;;;;;;2.01;100.00;95312.84;5036326;28;20026;-65
2022/03/12 01:05:59;;;;;;;16.67;8.43;;;;;;;2.05;100.00;95311.38;5039083;28;20033;-64
2022/03/12 01:08:33;;;;;;;16.75;8.95;;;;;;;2.11;100.00;95307.94;5028923;28;20034;-64
2022/03/12 01:11:02;;;;;;;19.70;9.20;;;;;;;2.14;100.00;95301.41;5037257;28;20026;-66
2022/03/12 01:13:28;;;;;;;17.45;8.95;;;;;;;2.16;100.00;95297.53;5021064;28;20026;-65
2022/03/12 01:16:03;;;;;;;16.50;9.18;;;;;;;2.20;100.00;95292.69;5038027;28;20057;-65
2022/03/12 01:18:29;;;;;;;19.77;9.52;;;;;;;2.24;100.00;95292.03;5036263;28;20033;-62
2022/03/12 01:20:54;;;;;;;17.88;8.82;;;;;;;2.33;100.00;95297.91;5021441;28;20081;-65
2022/03/12 01:23:29;;;;;;;18.38;9.27;;;;;;;2.38;100.00;95295.44;5042769;28;20080;-65
2022/03/12 01:25:54;;;;;;;17.15;9.07;;;;;;;2.44;100.00;95296.47;5057834;28;20033;-66
2022/03/12 01:28:23;;;;;;;16.23;9.13;;;;;;;2.51;100.00;95305.19;5040875;28;20025;-65
2022/03/12 01:30:49;;;;;;;18.52;9.27;;;;;;;2.57;100.00;95312.28;5058453;28;20026;-65
2022/03/12 01:33:18;;;;;;;18.17;9.52;;;;;;;2.65;100.00;95311.22;5058192;28;20028;-65
2022/03/12 01:35:49;;;;;;;18.40;9.30;;;;;;;2.70;100.00;95308.75;5039576;28;20033;-66
2022/03/12 01:38:17;;;;;;;17.40;9.48;;;;;;;2.75;100.00;95308.94;5058412;28;20017;-66
2022/03/12 01:40:43;;;;;;;24.30;9.45;;;;;;;2.76;100.00;95307.94;5057628;28;20075;-66
2022/03/12 01:43:26;;;;;;;16.73;9.15;;;;;;;2.80;100.00;95309.13;5040171;28;20033;-65
2022/03/12 01:45:51;;;;;;;15.23;9.05;;;;;;;2.81;100.00;95311.53;5056146;28;20036;-66
2022/03/12 01:48:28;;;;;;;18.30;9.40;;;;;;;2.84;100.00;95320.91;5057737;28;20030;-66
2022/03/12 01:50:54;;;;;;;18.67;9.32;;;;;;;2.89;100.00;95326.38;5057491;28;20022;-66
2022/03/12 01:53:25;;;;;;;20.83;9.45;;;;;;;2.90;100.00;95336.75;5043716;28;20021;-66
2022/03/12 01:55:51;;;;;;;16.08;9.15;;;;;;;2.92;100.00;95326.75;5058218;28;20017;-63
2022/03/12 01:58:16;;;;;;;16.38;8.68;;;;;;;2.94;100.00;95320.47;5057198;28;20029;-66
2022/03/12 02:01:00;;;;;;;17.50;9.10;;;;;;;2.92;100.00;95326.75;5030608;28;20041;-65
2022/03/12 02:03:29;;;;;;;16.13;8.43;;;;;;;2.95;100.00;95324.72;5055737;28;20045;-66
2022/03/12 02:06:16;;;;;;;15.15;8.77;;;;;;;2.98;100.00;95332.25;5057632;28;20020;-67
2022/03/12 02:09:01;;;;;;;16.20;8.80;;;;;;;3.00;100.00;95338.13;5057380;28;20035;-66
2022/03/12 02:11:32;;;;;;;16.67;9.55;;;;;;;2.98;100.00;95340.19;5056961;28;20021;-66
2022/03/12 02:14:08;;;;;;;14.30;8.50;;;;;;;2.89;100.00;95334.31;5056058;28;20010;-67
2022/03/12 02:16:34;;;;;;;15.63;8.75;;;;;;;2.83;100.00;95335.16;5056967;28;20021;-66
2022/03/12 02:18:59;;;;;;;17.50;9.00;;;;;;;2.77;100.00;95343.94;5056846;28;20017;-65
2022/03/12 02:21:42;;;;;;;16.27;8.30;;;;;;;2.68;100.00;95339.91;5056658;28;20514;-66
2022/03/12 02:24:14;;;;;;;14.60;8.15;;;;;;;2.64;100.00;95336.06;5038770;28;20075;-66
2022/03/12 02:27:00;;;;;;;19.23;9.20;;;;;;;2.52;100.00;95326.13;5039449;28;20060;-65
2022/03/12 02:29:26;;;;;;;14.95;8.30;;;;;;;2.45;100.00;95327.16;5056340;28;20085;-66
2022/03/12 02:31:58;;;;;;;15.27;8.18;;;;;;;2.36;100.00;95323.13;5056157;28;20025;-66
2022/03/12 02:34:30;;;;;;;15.07;8.67;;;;;;;2.28;100.00;95319.69;5056531;28;20081;-65
2022/03/12 02:36:58;;;;;;;16.85;8.45;;;;;;;2.18;100.00;95313.22;5056396;28;20557;-66
2022/03/12 02:39:31;;;;;;;17.05;8.57;;;;;;;2.15;100.00;95324.19;5055997;28;20017;-66
2022/03/12 02:42:00;;;;;;;15.05;8.40;;;;;;;2.09;100.00;95315.25;5037698;28;20040;-65
2022/03/12 02:44:28;;;;;;;19.65;8.85;;;;;;;2.06;100.00;95326.22;5055231;28;20056;-65
2022/03/12 02:47:21;;;;;;;20.17;7.78;;;;;;;2.00;100.00;95327.06;5055479;28;20031;-65
2022/03/12 02:49:47;;;;;;;16.95;8.07;;;;;;;1.91;100.00;95317.72;5038517;28;20025;-64
2022/03/12 02:52:17;;;;;;;15.30;7.68;;;;;;;1.83;100.00;95313.44;5030625;28;20027;-63
2022/03/12 02:54:44;;;;;;;17.40;8.10;;;;;;;1.82;100.00;95316.31;5039539;28;20084;-64
2022/03/12 02:57:10;;;;;;;17.27;8.15;;;;;;;1.78;100.00;95318.56;5037519;28;20059;-65
2022/03/12 02:59:38;;;;;;;14.13;7.72;;;;;;;1.79;100.00;95314.88;5047736;28;20053;-64
2022/03/12 03:02:07;;;;;;;15.73;8.82;;;;;;;1.82;100.00;95318.94;5053371;28;20036;-65
2022/03/12 03:04:34;;;;;;;15.95;8.00;;;;;;;1.81;100.00;95317.31;5038331;28;20094;-64
2022/03/12 03:07:01;;;;;;;15.30;7.93;;;;;;;1.84;100.00;95322.19;5054700;28;20488;-65
2022/03/12 03:09:30;;;;;;;19.70;8.18;;;;;;;1.84;100.00;95317.72;5054631;28;20033;-65
2022/03/12 03:12:03;;;;;;;14.93;7.82;;;;;;;1.91;100.00;95325.66;5037461;28;20049;-65
2022/03/12 03:14:29;;;;;;;;;;;;;;;1.92;100.00;95321.97;5037789;28;20436;-65
2022/03/12 03:16:59;;;;;;;14.32;7.70;;;;;;;1.92;100.00;95322.78;5037435;28;19920;-64
2022/03/12 03:19:26;;;;;;;15.65;8.00;;;;;;;1.99;100.00;95331.53;5054492;28;20081;-65
2022/03/12 03:21:56;;;;;;;17.90;8.23;;;;;;;2.01;100.00;95323.41;5054560;28;20021;-65
2022/03/12 03:24:22;;;;;;;16.13;7.82;;;;;;;2.06;100.00;95326.22;5053160;28;20056;-65
2022/03/12 03:26:56;;;;;;;15.25;7.88;;;;;;;2.14;100.00;95331.28;5036998;28;20038;-64
2022/03/12 03:29:23;;;;;;;14.98;7.82;;;;;;;2.22;100.00;95332.91;5036926;28;20030;-65
2022/03/12 03:31:52;;;;;;;14.20;7.80;;;;;;;2.27;100.00;95343.66;5036832;28;20081;-64
2022/03/12 03:34:22;;;;;;;15.57;8.02;;;;;;;2.37;100.00;95349.34;5037945;28;20025;-65
2022/03/12 03:36:48;;;;;;;14.90;7.95;;;;;;;2.42;100.00;95351.38;5053483;28;20081;-66
2022/03/12 03:39:14;;;;;;;15.63;7.80;;;;;;;2.42;100.00;95352.19;5053811;28;20025;-65
2022/03/12 03:41:40;;;;;;;16.27;8.05;;;;;;;2.47;100.00;95355.00;5054253;28;20032;-65
2022/03/12 03:44:10;;;;;;;15.27;7.80;;;;;;;2.49;100.00;95357.44;5053813;28;20009;-61
2022/03/12 03:46:36;;;;;;;17.25;7.47;;;;;;;2.51;100.00;95358.88;5036740;28;20056;-66
2022/03/12 03:49:06;;;;;;;14.55;8.25;;;;;;;2.57;100.00;95365.97;5053640;28;20021;-65
2022/03/12 03:51:42;;;;;;;15.07;7.25;;;;;;;2.57;100.00;95363.31;5053580;28;20044;-64
2022/03/12 03:54:27;;;;;;;14.18;8.07;;;;;;;2.58;100.00;95366.78;5040302;28;20021;-64
2022/03/12 03:56:52;;;;;;;15.00;7.25;;;;;;;2.59;100.00;95366.56;5053068;28;20025;-64
2022/03/12 03:59:17;;;;;;;16.38;8.30;;;;;;;2.61;100.00;95369.03;5048336;28;20060;-65
2022/03/12 04:01:43;;;;;;;16.23;7.65;;;;;;;2.67;100.00;95368.19;5032195;28;20029;-65
2022/03/12 04:04:12;;;;;;;15.68;8.38;;;;;;;2.73;100.00;95369.19;5036450;28;20028;-65
2022/03/12 04:06:41;;;;;;;16.60;8.18;;;;;;;2.81;100.00;95376.88;5035972;28;20083;-64
2022/03/12 04:09:13;;;;;;;15.23;7.50;;;;;;;2.88;100.00;95390.91;5035916;28;20029;-64
2022/03/12 04:11:43;;;;;;;14.15;7.95;;;;;;;2.89;100.00;95382.75;5053764;28;20105;-64
2022/03/12 04:14:08;;;;;;;13.20;7.88;;;;;;;2.92;100.00;95384.16;5053079;28;20036;-64
2022/03/12 04:16:34;;;;;;;16.15;7.88;;;;;;;2.90;100.00;95380.91;5053532;28;20025;-65
2022/03/12 04:19:04;;;;;;;14.27;7.75;;;;;;;2.89;100.00;95388.03;5053496;28;20104;-65
2022/03/12 04:21:29;;;;;;;14.85;8.15;;;;;;;2.88;100.00;95394.34;5053201;28;20021;-65
2022/03/12 04:23:55;;;;;;;15.98;7.50;;;;;;;2.88;100.00;95396.19;5053210;28;20033;-65
2022/03/12 04:26:23;;;;;;;15.35;8.43;;;;;;;2.86;100.00;95391.09;5052867;28;20028;-65
2022/03/12 04:28:49;;;;;;;14.60;7.82;;;;;;;2.85;100.00;95386.84;5052898;28;20094;-64
2022/03/12 04:31:21;;;;;;;17.48;8.27;;;;;;;2.86;100.00;95387.66;5053395;28;20504;-64
2022/03/12 04:33:46;;;;;;;13.15;7.50;;;;;;;2.79;100.00;95381.56;5036171;28;20025;-65
2022/03/12 04:36:13;;;;;;;17.95;8.63;;;;;;;2.72;100.00;95378.16;5052996;28;20028;-66
2022/03/12 04:38:39;;;;;;;15.98;8.50;;;;;;;2.66;100.00;95376.31;5052399;28;20032;-65
2022/03/12 04:41:06;;;;;;;14.00;7.60;;;;;;;2.58;100.00;95370.22;5052674;28;20032;-66
2022/03/12 04:43:38;;;;;;;15.75;8.10;;;;;;;2.50;100.00;95367.84;5052986;28;20052;-65
2022/03/12 04:46:06;;;;;;;17.95;8.73;;;;;;;2.48;100.00;95375.13;5053947;28;20025;-66
2022/03/12 04:48:32;;;;;;;15.98;7.95;;;;;;;2.52;100.00;95373.72;5036060;28;20029;-64
2022/03/12 04:51:00;;;;;;;15.57;7.80;;;;;;;2.57;100.00;95370.44;5054506;28;20022;-64
2022/03/12 04:53:32;;;;;;;16.30;8.20;;;;;;;2.59;100.00;95377.13;5040013;28;20022;-64
2022/03/12 04:56:00;;;;;;;14.40;8.15;;;;;;;2.60;100.00;95376.16;5053587;28;20025;-65
2022/03/12 04:58:25;;;;;;;14.52;7.95;;;;;;;2.55;100.00;95383.88;5036437;28;20057;-65
2022/03/12 05:00:51;;;;;;;14.25;7.80;;;;;;;2.50;100.00;95393.47;5037016;28;20029;-64
2022/03/12 05:03:23;;;;;;;18.13;8.15;;;;;;;2.41;100.00;95392.88;5054034;28;20033;-62
2022/03/12 05:05:53;;;;;;;15.63;8.35;;;;;;;2.35;100.00;95393.69;5036972;28;20026;-65
2022/03/12 05:08:24;;;;;;;15.40;8.18;;;;;;;2.29;100.00;95386.59;5054070;28;20060;-65
2022/03/12 05:10:54;;;;;;;18.27;7.93;;;;;;;2.22;100.00;95383.13;5054558;28;20068;-65
2022/03/12 05:13:24;;;;;;;16.23;8.25;;;;;;;2.19;100.00;95376.44;5036731;28;20025;-65
2022/03/12 05:15:55;;;;;;;16.65;8.10;;;;;;;2.15;100.00;95385.75;5053350;28;20289;-65
2022/03/12 05:18:24;;;;;;;14.85;8.30;;;;;;;2.14;100.00;95384.16;5053511;28;20304;-65
2022/03/12 05:20:50;;;;;;;16.40;8.52;;;;;;;2.15;100.00;95380.47;5053870;28;20112;-65
2022/03/12 05:25:56;;;;;;;17.35;8.98;;;;;;;2.18;100.00;95380.09;4971551;28;20402;-65
2022/03/12 05:28:29;;;;;;;18.75;9.77;;;;;;;2.16;100.00;95382.09;4974322;28;20034;-65
2022/03/12 05:30:58;;;;;;;23.30;10.65;;;;;;;2.15;100.00;95377.84;4965414;28;20114;-65
2022/03/12 05:33:29;;;;;;;20.63;11.27;;;;;;;2.09;100.00;95368.09;4979124;28;20089;-65
2022/03/12 05:35:54;;;;;;;22.80;11.50;;;;;;;2.03;100.00;95363.63;4992726;28;20486;-65
2022/03/12 05:38:36;;;;;;;23.58;11.50;;;;;;;2.00;100.00;95370.13;4991443;28;20080;-65
2022/03/12 05:41:06;;;;;;;25.30;12.38;;;;;;;1.97;100.00;95367.91;4976413;28;20034;-65
2022/03/12 05:43:33;;;;;;;19.40;11.43;;;;;;;1.88;100.00;95361.22;4992213;28;20026;-65
2022/03/12 05:46:01;;;;;;;22.10;11.48;;;;;;;1.80;100.00;95345.56;4992554;28;20062;-65
2022/03/12 05:48:29;;;;;;;22.17;11.60;;;;;;;1.77;100.00;95351.25;4975985;28;20022;-65
2022/03/12 05:50:55;;;;;;;21.20;11.98;;;;;;;1.77;100.00;95347.81;4996207;28;20080;-65
2022/03/12 05:53:21;;;;;;;20.58;10.85;;;;;;;1.74;100.00;95343.75;4995814;28;20022;-65
2022/03/12 05:55:47;;;;;;;19.23;9.85;;;;;;;1.72;100.00;95338.66;4996019;28;20018;-65
2022/03/12 05:58:17;;;;;;;18.17;10.15;;;;;;;1.72;100.00;95327.28;4996112;28;20073;-64
2022/03/12 06:00:43;;;;;;;19.95;10.50;;;;;;;1.74;100.00;95320.00;4973065;28;20033;-65
2022/03/12 06:03:10;;;;;;;24.23;11.10;;;;;;;1.76;100.00;95320.59;4976478;28;20031;-64
2022/03/12 06:05:41;;;;;;;22.20;10.88;;;;;;;1.78;100.00;95321.19;4976432;28;20036;-64
2022/03/12 06:08:13;;;;;;;21.65;11.13;;;;;;;1.80;100.00;95319.16;4976448;28;20499;-64
2022/03/12 06:10:42;;;;;;;22.50;11.53;;;;;;;1.83;100.00;95310.81;4976324;28;20041;-65
2022/03/12 06:13:08;;;;;;;21.63;11.25;;;;;;;1.86;100.00;95299.84;4976161;28;20505;-64
2022/03/12 06:15:36;;;;;;;25.85;11.75;;;;;;;1.89;100.00;95293.34;4976266;28;20027;-64
2022/03/12 06:18:11;;;;;;;22.08;11.75;;;;;;;1.95;100.00;95293.34;4976219;28;20026;-64
2022/03/12 06:20:37;;;;;;;23.98;11.50;;;;;;;2.11;100.00;95300.00;4958711;28;20033;-64
2022/03/12 06:23:05;;;;;;;29.60;11.70;;;;;;;2.39;100.00;95305.03;4975841;28;20374;-64
2022/03/12 06:25:34;;;;;;;23.70;12.65;;;;;;;2.58;100.00;95319.19;4958106;28;20065;-64
2022/03/12 06:28:01;;;;;;;21.95;11.27;;;;;;;2.69;100.00;95334.38;4956604;29;20023;-65
2022/03/12 06:30:34;;;;;;;21.35;11.90;;;;;;;2.85;100.00;95339.22;4939482;29;20094;-65
2022/03/12 06:33:00;;;;;;;27.55;12.38;;;;;;;2.99;100.00;95347.91;4955337;29;20074;-65
2022/03/12 06:35:27;;;;;;;22.20;10.95;;;;;;;3.11;100.00;95354.16;4937473;29;20027;-65
2022/03/12 06:37:52;;;;;;;25.35;12.43;;;;;;;3.24;100.00;95369.16;4933279;29;20027;-65
2022/03/12 06:40:21;;;;;;;20.77;11.38;;;;;;;3.31;100.00;95375.22;4952906;29;20397;-65
2022/03/12 06:42:53;;;;;;;21.92;11.43;;;;;;;3.37;100.00;95373.56;4945890;29;20062;-65
2022/03/12 06:45:28;;;;;;;24.00;11.73;;;;;;;3.39;100.00;95374.16;4921375;29;20118;-64
2022/03/12 06:47:57;;;;;;;24.73;11.75;;;;;;;3.43;100.00;95375.34;4953432;29;20031;-65
2022/03/12 06:50:24;;;;;;;20.60;10.38;;;;;;;3.48;100.00;95380.84;4932364;29;20106;-65
2022/03/12 06:52:58;;;;;;;21.02;10.68;;;;;;;3.69;100.00;95399.03;4952512;29;20066;-65
2022/03/12 06:55:31;;;;;;;20.08;10.95;;;;;;;3.85;100.00;95410.13;4938977;29;20031;-65
2022/03/12 06:57:58;;;;;;;18.65;10.20;;;;;;;4.09;100.00;95422.59;4956318;29;20094;-65
2022/03/12 07:00:26;;;;;;;20.73;10.60;;;;;;;4.33;100.00;95447.47;4897406;28;20097;-66
2022/03/12 07:02:55;;;;;;;19.80;10.35;;;;;;;4.60;100.00;95471.94;4953578;28;20053;-65
2022/03/12 07:05:21;;;;;;;19.15;9.52;;;;;;;4.85;100.00;95488.63;4936171;29;20037;-65
2022/03/12 07:07:48;;;;;;;18.67;10.07;;;;;;;5.13;100.00;95517.38;4954507;29;20466;-64
2022/03/12 07:10:14;;;;;;;20.88;11.07;;;;;;;5.35;100.00;95540.84;4954717;29;20101;-64
2022/03/12 07:12:43;;;;;;;23.67;11.55;;;;;;;5.49;100.00;95559.06;4938470;29;20031;-64
2022/03/12 07:15:09;;;;;;;22.55;11.45;;;;;;;5.65;100.00;95562.19;4951684;28;20035;-65
2022/03/12 07:17:34;;;;;;;20.20;10.80;;;;;;;5.82;100.00;95577.28;4937962;29;20038;-64
2022/03/12 07:20:00;;;;;;;21.73;10.73;;;;;;;5.99;100.00;95588.19;4955165;29;20031;-64
2022/03/12 07:22:26;;;;;;;24.55;10.88;;;;;;;6.16;100.00;95606.16;4955254;29;20398;-64
2022/03/12 07:24:51;;;;;;;27.25;11.10;;;;;;;6.27;100.00;95618.72;4950285;28;20453;-64
2022/03/12 07:27:16;;;;;;;22.48;10.68;;;;;;;6.44;100.00;95618.91;4958233;28;20027;-64
2022/03/12 07:29:42;;;;;;;21.85;11.50;;;;;;;6.65;100.00;95623.72;4974924;28;20030;-65
2022/03/12 07:32:07;;;;;;;21.15;11.23;;;;;;;6.83;100.00;95644.13;4974675;28;20054;-66
2022/03/12 07:34:33;;;;;;;21.70;11.60;;;;;;;6.95;100.00;95637.00;4974322;28;20500;-66
2022/03/12 07:36:58;;;;;;;22.48;11.50;;;;;;;7.20;100.00;95640.28;4985112;28;20092;-66
2022/03/12 07:39:24;;;;;;;24.60;11.55;;;;;;;7.36;100.00;95653.97;4982851;28;20531;-65
2022/03/12 07:41:50;;;;;;;21.73;10.57;;;;;;;7.52;100.00;95662.09;4973630;28;20417;-65
2022/03/12 07:44:18;;;;;;;21.98;11.02;;;;;;;7.59;100.00;95672.63;4972850;28;20030;-65
2022/03/12 07:46:48;;;;;;;17.45;9.82;;;;;;;7.65;100.00;95681.56;4984788;28;20022;-66
2022/03/12 07:49:14;;;;;;;19.73;9.57;;;;;;;7.71;100.00;95694.81;4980398;28;20026;-65
2022/03/12 07:51:43;;;;;;;19.38;10.48;;;;;;;7.82;100.00;95698.50;4972867;28;20030;-65
2022/03/12 07:54:13;;;;;;;21.02;10.23;;;;;;;7.93;100.00;95700.38;4974103;28;20023;-66
2022/03/12 07:56:39;;;;;;;20.60;10.63;;;;;;;8.03;100.00;95705.09;4989125;28;20038;-65
2022/03/12 07:59:04;;;;;;;21.90;10.68;;;;;;;8.01;100.00;95699.19;4974205;28;20477;-66
2022/03/12 08:01:30;;;;;;;21.85;12.18;;;;;;;8.20;100.00;95694.53;4974045;28;20081;-65
2022/03/12 08:03:55;;;;;;;16.35;10.43;;;;;;;8.37;100.00;95700.81;4974252;28;20081;-65
2022/03/12 08:06:30;;;;;;;20.40;11.40;;;;;;;8.49;100.00;95693.56;4974330;28;20549;-65
2022/03/12 08:09:03;;;;;;;22.30;10.88;;;;;;;8.57;100.00;95695.84;4974248;28;20058;-66
2022/03/12 08:11:29;;;;;;;21.40;10.65;;;;;;;8.57;100.00;95698.50;4935247;28;20038;-65
2022/03/12 08:14:03;;;;;;;21.48;11.95;;;;;;;8.54;100.00;95696.31;4976632;28;20438;-66
2022/03/12 08:16:30;;;;;;;21.55;12.00;;;;;;;8.55;100.00;95705.16;4974035;28;20030;-65
2022/03/12 08:19:06;;;;;;;19.10;10.90;;;;;;;8.52;100.00;95703.75;4957034;28;20069;-65
2022/03/12 08:21:33;;;;;;;20.77;11.27;;;;;;;8.75;100.00;95702.88;4973994;28;20023;-65
2022/03/12 08:23:58;;;;;;;21.05;11.45;;;;;;;8.82;100.00;95702.75;4968403;28;20055;-66
2022/03/12 08:26:30;;;;;;;20.48;11.73;;;;;;;8.84;100.00;95709.47;4953310;29;20117;-66
2022/03/12 08:28:58;;;;;;;21.75;12.05;;;;;;;9.05;100.00;95699.16;4965921;28;20027;-66
2022/03/12 08:31:24;;;;;;;19.60;11.45;;;;;;;9.17;100.00;95703.38;4973869;28;20058;-66
2022/03/12 08:33:49;;;;;;;20.75;11.63;;;;;;;9.26;100.00;95695.78;4973692;28;20050;-65
2022/03/12 08:36:15;;;;;;;20.08;10.68;;;;;;;9.30;100.00;95700.41;4973718;28;20644;-66
2022/03/12 08:38:41;;;;;;;19.20;11.32;;;;;;;9.53;100.00;95706.66;4956424;28;20042;-66
2022/03/12 08:41:09;;;;;;;19.08;10.95;;;;;;;9.73;100.00;95700.81;4973820;28;20627;-65
2022/03/12 08:43:39;;;;;;;19.75;11.18;;;;;;;9.91;100.00;95707.78;4973654;28;20097;-65
2022/03/12 08:46:07;;;;;;;19.65;11.73;;;;;;;10.09;100.00;95708.34;4972460;28;20033;-65
2022/03/12 08:48:34;;;;;;;17.23;10.93;;;;;;;10.28;99.64;95705.41;4973637;28;20026;-66
2022/03/12 08:51:03;;;;;;;18.50;11.35;;;;;;;10.34;97.76;95710.56;4973697;28;20109;-65
2022/03/12 08:53:29;;;;;;;22.92;11.82;;;;;;;10.49;96.32;95715.31;4973538;28;20101;-66
2022/03/12 08:56:03;;;;;;;20.63;12.23;;;;;;;10.64;94.25;95720.06;4972475;28;20118;-66
2022/03/12 08:58:36;;;;;;;19.95;11.05;;;;;;;10.56;91.61;95725.84;4956230;28;20067;-65
2022/03/12 09:01:06;;;;;;;23.42;12.10;;;;;;;10.64;92.42;95723.56;4973587;28;20076;-66
2022/03/12 09:03:35;;;;;;;18.20;11.35;;;;;;;10.69;91.96;95720.94;4972071;28;20548;-66
2022/03/12 09:06:02;;;;;;;18.75;10.93;;;;;;;10.98;93.09;95723.41;4973425;28;20035;-66
2022/03/12 09:08:28;;;;;;;19.23;12.02;;;;;;;11.39;93.63;95713.88;4973496;28;20038;-65
2022/03/12 09:10:57;;;;;;;22.20;12.52;;;;;;;11.63;90.37;95727.81;4956223;28;20027;-65
2022/03/12 09:13:26;;;;;;;18.58;11.85;;;;;;;11.80;89.23;95720.44;4973361;28;20110;-65
2022/03/12 09:15:51;;;;;;;18.83;11.65;;;;;;;11.89;87.67;95732.34;4972702;28;20038;-65
2022/03/12 09:18:23;;;;;;;20.35;12.45;;;;;;;12.04;87.80;95737.00;4973281;28;20080;-66
2022/03/12 09:20:52;;;;;;;20.95;11.68;;;;;;;12.25;86.82;95737.94;4973457;28;20023;-65
2022/03/12 09:23:23;;;;;;;17.40;10.57;;;;;;;12.35;83.86;95742.56;4973816;28;20167;-66
2022/03/12 09:25:50;;;;;;;16.73;10.68;;;;;;;12.43;83.00;95740.22;4963218;28;20476;-66
2022/03/12 09:28:22;;;;;;;20.50;12.30;;;;;;;12.52;82.85;95745.09;4983260;28;20022;-66
2022/03/12 09:30:52;;;;;;;21.25;11.85;;;;;;;12.51;80.49;95748.84;4995349;28;20121;-66
2022/03/12 09:33:22;;;;;;;19.30;11.27;;;;;;;12.49;80.15;95746.44;4996550;28;20113;-66
2022/03/12 09:35:49;;;;;;;20.98;11.98;;;;;;;12.68;81.59;95752.97;4979114;28;20484;-66
2022/03/12 09:38:15;;;;;;;19.83;11.68;;;;;;;12.93;80.61;95751.47;4995329;28;20034;-65
2022/03/12 09:40:41;;;;;;;21.02;11.90;;;;;;;13.11;80.29;95755.56;4996244;28;20027;-66
2022/03/12 09:43:08;;;;;;;19.92;11.95;;;;;;;13.19;78.14;95753.19;4996007;28;20029;-65
2022/03/12 09:45:35;;;;;;;18.55;11.55;;;;;;;13.21;78.61;95748.34;5011578;28;20042;-66
2022/03/12 09:48:01;;;;;;;18.35;11.80;;;;;;;13.23;77.57;95746.22;4996340;28;20037;-66
2022/03/12 09:50:32;;;;;;;18.15;11.45;;;;;;;13.25;75.36;95737.91;4996243;28;20034;-66
2022/03/12 09:53:01;;;;;;;18.80;11.48;;;;;;;13.37;75.67;95741.16;4978786;28;20041;-66
2022/03/12 09:55:29;;;;;;;19.35;11.00;;;;;;;13.14;75.54;95746.97;4996025;28;20496;-66
2022/03/12 09:57:58;;;;;;;19.33;11.43;;;;;;;13.16;76.33;95734.88;4995993;28;20477;-65
2022/03/12 10:00:26;;;;;;;19.13;11.93;;;;;;;13.41;77.07;95736.03;4996119;28;20022;-65
2022/03/12 10:02:55;;;;;;;21.48;12.18;;;;;;;13.51;76.43;95733.38;4983217;28;20023;-65
2022/03/12 10:05:20;;;;;;;18.73;12.15;;;;;;;13.56;76.83;95728.78;4961821;28;20437;-65
2022/03/12 10:07:46;;;;;;;18.95;11.48;;;;;;;13.48;79.51;95728.53;4984564;28;20053;-65
2022/03/12 10:10:17;;;;;;;18.40;12.73;;;;;;;13.45;80.54;95719.06;4995872;28;20081;-65
2022/03/12 10:12:47;;;;;;;22.50;12.30;;;;;;;13.56;79.41;95727.97;4995804;28;20476;-65
2022/03/12 10:15:16;;;;;;;20.98;12.73;;;;;;;13.53;77.50;95726.63;4994502;28;20045;-65
2022/03/12 10:17:46;;;;;;;23.20;13.48;;;;;;;13.34;79.16;95722.81;4995687;28;20459;-65
2022/03/12 10:20:12;;;;;;;21.85;13.20;;;;;;;13.35;77.75;95721.78;4978139;28;20022;-66
2022/03/12 10:22:39;;;;;;;22.45;12.27;;;;;;;13.43;77.77;95718.53;4995598;28;20519;-65
2022/03/12 10:25:06;;;;;;;19.33;12.30;;;;;;;13.50;77.46;95705.66;4995278;28;20050;-66
2022/03/12 10:27:35;;;;;;;17.83;11.52;;;;;;;12.67;75.59;95716.41;4981564;28;20089;-65
2022/03/12 10:30:07;;;;;;;20.67;12.55;;;;;;;12.08;77.98;95715.81;4969257;28;20057;-66
2022/03/12 10:32:47;;;;;;;22.15;12.90;;;;;;;11.94;80.91;95701.22;4995537;28;20109;-66
2022/03/12 10:35:23;;;;;;;21.17;12.82;;;;;;;11.88;82.50;95705.75;4994409;28;20080;-66
2022/03/12 10:37:52;;;;;;;24.70;13.13;;;;;;;12.06;85.24;95693.81;4995442;28;20362;-66
2022/03/12 10:40:27;;;;;;;20.27;13.02;;;;;;;12.27;84.07;95694.72;4982363;28;20102;-66
2022/03/12 10:42:56;;;;;;;20.95;13.80;;;;;;;12.48;83.79;95693.75;4987789;28;20548;-66
2022/03/12 10:45:28;;;;;;;21.10;13.13;;;;;;;12.62;81.12;95689.53;4994963;28;20113;-66
2022/03/12 10:48:02;;;;;;;23.40;13.73;;;;;;;12.76;80.25;95690.66;4995086;28;20031;-67
2022/03/12 10:50:36;;;;;;;21.88;13.32;;;;;;;12.93;77.77;95686.94;4981343;28;20497;-67
2022/03/12 10:53:05;;;;;;;26.35;14.00;;;;;;;13.19;80.89;95675.19;4975513;28;20031;-67
2022/03/12 10:55:38;;;;;;;18.45;12.75;;;;;;;13.52;76.97;95667.69;4975372;28;20494;-66
2022/03/12 10:58:03;;;;;;;23.50;13.18;;;;;;;13.74;74.62;95670.91;4975624;28;20030;-67
2022/03/12 11:00:40;;;;;;;22.27;13.57;;;;;;;13.84;73.27;95667.41;4976845;28;20030;-66
2022/03/12 11:03:11;;;;;;;22.60;13.77;;;;;;;13.75;72.60;95671.72;4962864;28;20449;-66
2022/03/12 11:05:37;;;;;;;22.52;14.50;;;;;;;13.63;73.04;95664.72;4975131;28;20037;-67
2022/03/12 11:08:28;;;;;;;20.98;12.73;;;;;;;13.54;74.02;95668.22;4972965;28;20038;-66
2022/03/12 11:10:58;;;;;;;25.65;14.38;;;;;;;13.61;73.40;95671.47;4970630;28;20050;-67
2022/03/12 11:16:26;;;;;;;25.38;14.13;;;;;;;13.95;74.19;95663.63;4972161;28;20441;-66
2022/03/12 11:18:52;;;;;;;22.33;13.40;;;;;;;13.90;72.78;95672.53;4975128;28;20034;-67
2022/03/12 11:21:37;;;;;;;25.25;15.32;;;;;;;13.79;73.31;95660.16;4974904;28;20030;-67
2022/03/12 11:24:05;;;;;;;22.90;14.02;;;;;;;13.32;72.91;95657.72;4989864;23;20054;-63
2022/03/12 11:26:43;;;;;;;21.33;13.43;;;;;;;13.15;74.72;95652.56;5012466;28;20574;-63
2022/03/12 11:29:26;;;;;;;24.00;14.20;;;;;;;13.14;76.64;95648.28;5024961;28;20032;-62
2022/03/12 11:31:58;;;;;;;20.42;13.43;;;;;;;13.28;76.02;95640.50;5013164;28;20030;-62
2022/03/12 11:34:28;;;;;;;24.58;13.93;;;;;;;13.27;75.87;95638.91;5017408;28;20021;-63
2022/03/12 11:37:15;;;;;;;25.23;14.38;;;;;;;13.14;75.01;95634.81;5032681;28;20026;-62